Time;durP1;ratioP1;P1;durP2;ratioP2;P2;SDS_P1;SDS_P2;PMS_P1;PMS_P2;Temp;Humidity;BMP_temperature;BMP_pressure;BME280_temperature;BME280_humidity;BME280_pressure;Samples;Min_cycle;Max_cycle;Signal;HPM_P1;HPM_P2
2024/04/04 00:00:44;;;;;;;1.47;1.10;;;10.70;99.90;;;;;;5041060;28;20665;-76
2024/04/04 00:03:11;;;;;;;2.90;1.20;;;10.70;99.90;;;;;;4979339;28;20625;-76
2024/04/04 00:05:37;;;;;;;2.97;1.27;;;10.70;99.90;;;;;;4979658;28;20639;-76
2024/04/04 00:08:05;;;;;;;2.40;1.10;;;10.70;99.90;;;;;;5015373;28;21168;-76
2024/04/04 00:10:31;;;;;;;6.03;1.30;;;10.70;99.90;;;;;;5027486;28;20632;-76
2024/04/04 00:12:59;;;;;;;1.13;0.97;;;10.80;99.90;;;;;;5002726;28;21036;-76
2024/04/04 00:15:26;;;;;;;2.60;1.30;;;10.80;99.90;;;;;;5049157;28;20206;-76
2024/04/04 00:17:53;;;;;;;1.43;1.17;;;10.80;99.90;;;;;;5010420;28;20717;-76
2024/04/04 00:20:19;;;;;;;3.80;1.00;;;10.80;99.90;;;;;;5058149;28;21108;-76
2024/04/04 00:22:46;;;;;;;2.73;0.80;;;10.80;99.90;;;;;;5024234;28;20630;-76
2024/04/04 00:25:13;;;;;;;2.43;1.23;;;10.80;99.90;;;;;;5020495;28;20689;-76
2024/04/04 00:27:40;;;;;;;2.53;1.00;;;10.80;99.90;;;;;;5048195;28;20643;-76
2024/04/04 00:30:06;;;;;;;3.10;1.17;;;10.80;99.90;;;;;;5056605;28;20632;-76
2024/04/04 00:32:34;;;;;;;6.40;1.50;;;10.70;99.90;;;;;;4993036;28;21016;-75
2024/04/04 00:35:00;;;;;;;1.17;1.07;;;10.70;99.90;;;;;;5001369;28;20624;-76
2024/04/04 00:37:27;;;;;;;1.67;1.00;;;10.60;99.90;;;;;;4990915;28;21197;-77
2024/04/04 00:39:53;;;;;;;3.23;1.07;;;10.50;99.90;;;;;;5034971;28;20265;-74
2024/04/04 00:42:20;;;;;;;3.47;1.07;;;10.40;99.90;;;;;;5025102;28;20717;-75
2024/04/04 00:44:46;;;;;;;1.50;1.00;;;10.40;99.90;;;;;;4978303;28;20635;-74
2024/04/04 00:47:13;;;;;;;1.77;1.20;;;10.40;99.90;;;;;;4977927;28;21173;-75
2024/04/04 00:49:40;;;;;;;1.60;1.50;;;10.40;99.90;;;;;;5052673;28;20667;-74
2024/04/04 00:52:09;;;;;;;2.40;1.23;;;10.40;99.90;;;;;;5042122;28;20635;-74
2024/04/04 00:54:40;;;;;;;1.60;1.00;;;10.40;99.90;;;;;;5007624;28;20625;-74
2024/04/04 00:57:07;;;;;;;2.20;1.10;;;10.40;99.90;;;;;;5049374;28;20682;-74
2024/04/04 00:59:33;;;;;;;1.83;1.50;;;10.40;99.90;;;;;;5028247;28;20625;-74
2024/04/04 01:02:00;;;;;;;1.87;1.00;;;10.30;99.90;;;;;;5006040;28;20671;-76
2024/04/04 01:04:26;;;;;;;2.87;1.30;;;10.40;99.90;;;;;;5022640;28;20215;-76
2024/04/04 01:06:55;;;;;;;1.33;0.80;;;10.30;99.90;;;;;;5020869;28;20636;-75
2024/04/04 01:09:20;;;;;;;2.70;1.40;;;10.30;99.90;;;;;;4991417;28;20246;-76
2024/04/04 01:11:48;;;;;;;1.83;1.20;;;10.30;99.90;;;;;;4997813;28;20633;-76
2024/04/04 01:14:15;;;;;;;1.40;1.30;;;10.30;99.90;;;;;;5000164;28;20635;-76
2024/04/04 01:16:43;;;;;;;1.10;1.00;;;10.30;99.90;;;;;;5020680;28;20681;-76
2024/04/04 01:19:10;;;;;;;1.50;1.30;;;10.20;99.90;;;;;;5022412;28;20739;-75
2024/04/04 01:21:38;;;;;;;1.33;1.23;;;10.20;99.90;;;;;;5022472;28;20733;-76
2024/04/04 01:24:06;;;;;;;1.60;1.10;;;10.20;99.90;;;;;;5044653;28;20686;-75
2024/04/04 01:26:34;;;;;;;1.53;1.43;;;10.30;99.90;;;;;;4999133;28;21204;-76
2024/04/04 01:29:01;;;;;;;1.00;0.73;;;10.20;99.90;;;;;;5010253;28;21220;-76
2024/04/04 01:31:30;;;;;;;1.33;0.90;;;10.30;99.90;;;;;;5005124;28;20689;-75
2024/04/04 01:33:57;;;;;;;1.53;1.10;;;10.30;99.90;;;;;;5026645;28;20751;-76
2024/04/04 01:36:25;;;;;;;2.60;1.00;;;10.30;99.90;;;;;;5060252;28;20631;-75
2024/04/04 01:38:52;;;;;;;7.60;1.20;;;10.30;99.90;;;;;;5007255;28;20718;-76
2024/04/04 01:41:22;;;;;;;1.20;1.10;;;10.30;99.90;;;;;;5046628;28;20648;-76
2024/04/04 01:43:50;;;;;;;0.90;0.90;;;10.40;99.90;;;;;;5063791;28;20950;-76
2024/04/04 01:46:18;;;;;;;0.90;0.87;;;10.50;99.90;;;;;;5044743;28;20725;-76
2024/04/04 01:48:45;;;;;;;2.80;0.83;;;10.50;99.90;;;;;;4999173;28;20685;-76
2024/04/04 01:51:12;;;;;;;1.17;0.80;;;10.50;99.90;;;;;;5012442;28;20643;-75
2024/04/04 01:53:40;;;;;;;2.63;0.90;;;10.50;99.90;;;;;;5034439;28;20652;-76
2024/04/04 01:56:08;;;;;;;1.63;1.07;;;10.50;99.90;;;;;;4990925;28;20624;-76
2024/04/04 01:58:36;;;;;;;1.43;0.97;;;10.60;99.90;;;;;;5036263;28;20717;-75
2024/04/04 02:01:05;;;;;;;0.83;0.83;;;10.60;99.90;;;;;;5003443;28;20666;-76
2024/04/04 02:03:32;;;;;;;2.40;1.20;;;10.60;99.90;;;;;;4997816;28;20636;-75
2024/04/04 02:06:00;;;;;;;1.37;1.20;;;10.60;99.90;;;;;;5012626;28;20696;-75
2024/04/04 02:08:26;;;;;;;1.20;0.90;;;10.60;99.90;;;;;;5012727;28;20736;-75
2024/04/04 02:10:53;;;;;;;1.20;1.10;;;10.70;99.90;;;;;;5026196;28;20625;-76
2024/04/04 02:13:19;;;;;;;2.10;1.47;;;10.70;99.90;;;;;;5050639;28;20629;-75
2024/04/04 02:15:49;;;;;;;3.10;1.47;;;10.70;99.90;;;;;;5072016;28;20671;-75
2024/04/04 02:18:15;;;;;;;1.17;1.00;;;10.70;99.90;;;;;;5042365;28;20644;-75
2024/04/04 02:20:43;;;;;;;1.90;1.10;;;10.70;99.90;;;;;;5015236;28;21022;-76
2024/04/04 02:23:09;;;;;;;2.03;1.00;;;10.70;99.90;;;;;;5017585;28;20633;-76
2024/04/04 02:25:38;;;;;;;2.33;1.20;;;10.80;99.90;;;;;;5032768;28;21035;-76
2024/04/04 02:28:04;;;;;;;2.30;1.20;;;10.80;99.90;;;;;;5063463;28;20203;-75
2024/04/04 02:30:31;;;;;;;2.30;1.10;;;10.60;99.90;;;;;;5023793;28;21016;-75
2024/04/04 02:32:59;;;;;;;1.43;1.30;;;10.60;99.90;;;;;;4998278;28;20625;-77
2024/04/04 02:35:27;;;;;;;1.47;1.30;;;10.60;99.90;;;;;;5010698;28;20663;-76
2024/04/04 02:37:54;;;;;;;1.03;0.90;;;10.60;99.90;;;;;;5031056;28;20653;-76
2024/04/04 02:40:22;;;;;;;1.17;0.87;;;10.60;99.90;;;;;;5044045;28;20632;-76
2024/04/04 02:42:49;;;;;;;1.10;0.90;;;10.60;99.90;;;;;;5071533;28;20686;-76
2024/04/04 02:45:18;;;;;;;2.07;1.63;;;10.50;99.90;;;;;;5022318;28;20628;-75
2024/04/04 02:47:45;;;;;;;1.07;0.70;;;10.50;99.90;;;;;;5009507;28;20724;-76
2024/04/04 02:50:14;;;;;;;1.90;1.47;;;10.50;99.90;;;;;;5032764;28;21239;-75
2024/04/04 02:52:41;;;;;;;2.13;1.13;;;10.60;99.90;;;;;;5014114;28;20743;-76
2024/04/04 02:55:09;;;;;;;4.47;1.80;;;10.60;99.90;;;;;;5044960;28;20629;-75
2024/04/04 02:57:38;;;;;;;1.20;1.10;;;10.60;99.90;;;;;;5027315;28;20632;-75
2024/04/04 03:00:08;;;;;;;2.10;1.27;;;10.60;99.90;;;;;;4990232;28;20765;-76
2024/04/04 03:02:35;;;;;;;1.53;1.43;;;10.60;99.90;;;;;;5019526;28;21069;-75
2024/04/04 03:05:02;;;;;;;5.77;1.43;;;10.70;99.90;;;;;;5067760;28;20623;-76
2024/04/04 03:07:30;;;;;;;1.90;1.17;;;10.70;99.90;;;;;;5053725;28;20616;-76
2024/04/04 03:09:56;;;;;;;1.70;0.90;;;10.60;99.90;;;;;;5008160;28;20649;-76
2024/04/04 03:12:23;;;;;;;0.90;0.90;;;10.70;99.90;;;;;;5018373;28;20640;-76
2024/04/04 03:14:49;;;;;;;2.20;1.13;;;10.70;99.90;;;;;;5024508;28;20624;-75
2024/04/04 03:17:16;;;;;;;2.70;1.20;;;10.70;99.90;;;;;;5055983;28;20621;-75
2024/04/04 03:19:42;;;;;;;1.03;0.87;;;10.70;99.90;;;;;;5044842;28;20709;-75
2024/04/04 03:22:08;;;;;;;1.17;1.00;;;10.70;99.90;;;;;;5045739;28;20676;-76
2024/04/04 03:24:36;;;;;;;2.90;1.33;;;10.70;99.90;;;;;;5061871;28;20610;-76
2024/04/04 03:27:03;;;;;;;1.13;1.00;;;10.60;99.90;;;;;;5008888;28;20629;-76
2024/04/04 03:29:28;;;;;;;2.17;0.97;;;10.70;99.90;;;;;;5012114;28;20643;-76
2024/04/04 03:31:55;;;;;;;0.77;0.77;;;10.70;99.90;;;;;;5040817;28;20626;-75
2024/04/04 03:34:21;;;;;;;1.47;1.00;;;10.70;99.90;;;;;;5051766;28;20301;-76
2024/04/04 03:36:48;;;;;;;1.30;1.20;;;10.60;99.90;;;;;;5053801;28;20818;-76
2024/04/04 03:39:15;;;;;;;2.10;1.37;;;10.60;99.90;;;;;;4993646;28;20233;-76
2024/04/04 03:41:42;;;;;;;1.17;1.07;;;10.60;99.90;;;;;;5064859;28;20662;-75
2024/04/04 03:44:09;;;;;;;1.00;0.90;;;10.50;99.90;;;;;;5062270;28;20727;-75
2024/04/04 03:46:35;;;;;;;1.33;1.20;;;10.60;99.90;;;;;;5025913;28;20636;-76
2024/04/04 03:49:02;;;;;;;1.67;0.93;;;10.50;99.90;;;;;;4990577;28;21022;-76
2024/04/04 03:51:27;;;;;;;0.90;0.80;;;10.50;99.90;;;;;;4988649;28;20633;-75
2024/04/04 03:53:54;;;;;;;1.50;1.30;;;10.50;99.90;;;;;;5006054;28;20645;-76
2024/04/04 03:56:20;;;;;;;0.80;0.80;;;10.50;99.90;;;;;;5021690;28;20240;-75
2024/04/04 03:58:48;;;;;;;1.60;0.90;;;10.40;99.90;;;;;;5023783;28;20677;-76
2024/04/04 04:01:14;;;;;;;0.70;0.70;;;10.40;99.90;;;;;;5069363;28;20757;-76
2024/04/04 04:03:41;;;;;;;1.73;1.33;;;10.50;99.90;;;;;;5034034;28;20714;-76
2024/04/04 04:06:07;;;;;;;3.33;1.17;;;10.50;99.90;;;;;;5003257;28;20201;-75
2024/04/04 04:08:33;;;;;;;0.90;0.90;;;10.50;99.90;;;;;;5023524;28;20733;-76
2024/04/04 04:11:00;;;;;;;1.70;1.13;;;10.50;99.90;;;;;;4986320;28;20609;-76
2024/04/04 04:13:27;;;;;;;3.10;1.10;;;10.50;99.90;;;;;;4991232;28;20686;-76
2024/04/04 04:15:58;;;;;;;0.90;0.70;;;10.40;99.90;;;;;;5000999;28;20229;-75
2024/04/04 04:18:25;;;;;;;2.60;0.87;;;10.40;99.90;;;;;;5010682;28;20965;-76
2024/04/04 04:23:36;;;;;;;3.07;1.33;;;10.30;99.90;;;;;;5027145;28;20684;-76
2024/04/04 04:26:02;;;;;;;0.60;0.60;;;10.40;99.90;;;;;;5042132;28;20674;-76
2024/04/04 04:28:29;;;;;;;1.07;0.97;;;10.40;99.90;;;;;;4989673;28;20648;-75
2024/04/04 04:30:54;;;;;;;2.00;0.93;;;10.40;99.90;;;;;;5001820;28;20634;-76
2024/04/04 04:33:23;;;;;;;1.47;0.93;;;10.30;99.90;;;;;;5024810;28;20623;-75
2024/04/04 04:35:48;;;;;;;1.07;0.97;;;10.30;99.90;;;;;;5021640;28;20232;-75
2024/04/04 04:38:15;;;;;;;1.40;1.10;;;10.30;99.90;;;;;;5031312;28;20621;-75
2024/04/04 04:40:42;;;;;;;1.30;0.93;;;10.30;99.90;;;;;;5064453;28;20207;-86
2024/04/04 04:43:09;;;;;;;1.30;1.07;;;10.30;99.90;;;;;;5009251;28;20756;-87
2024/04/04 04:45:35;;;;;;;1.10;1.00;;;10.30;99.90;;;;;;5005510;28;21176;-86
2024/04/04 04:48:02;;;;;;;1.00;0.90;;;10.20;99.90;;;;;;5035091;28;20627;-86
2024/04/04 04:50:29;;;;;;;1.13;1.13;;;10.20;99.90;;;;;;4999043;28;20703;-86
2024/04/04 04:52:56;;;;;;;1.83;1.23;;;10.10;99.90;;;;;;4973852;28;21020;-86
2024/04/04 04:55:22;;;;;;;1.20;1.10;;;10.10;99.90;;;;;;4976638;28;20628;-85
2024/04/04 04:57:48;;;;;;;1.83;1.20;;;10.10;99.90;;;;;;4980681;28;20963;-87
2024/04/04 05:00:15;;;;;;;1.17;1.00;;;10.10;99.90;;;;;;4982318;28;20626;-82
2024/04/04 05:02:47;;;;;;;4.00;1.13;;;10.10;99.90;;;;;;4982023;28;20686;-90
2024/04/04 05:05:14;;;;;;;2.40;1.30;;;10.70;99.90;;;;;;4971448;28;20631;-86
2024/04/04 05:07:43;;;;;;;1.33;0.90;;;10.10;99.90;;;;;;4978850;28;20622;-84
2024/04/04 05:10:08;;;;;;;4.00;1.27;;;10.10;99.90;;;;;;4998463;28;20642;-85
2024/04/04 05:12:36;;;;;;;3.87;2.07;;;10.20;99.90;;;;;;5007125;28;20633;-85
2024/04/04 05:15:02;;;;;;;4.50;1.63;;;10.20;99.90;;;;;;5019042;28;20232;-85
2024/04/04 05:17:29;;;;;;;3.10;1.60;;;10.30;99.90;;;;;;5035214;28;20722;-90
2024/04/04 05:19:55;;;;;;;7.53;1.57;;;10.30;99.90;;;;;;5015594;28;20720;-90
2024/04/04 05:22:22;;;;;;;1.53;1.20;;;10.20;99.90;;;;;;5016444;28;20677;-91
2024/04/04 05:24:49;;;;;;;1.80;1.00;;;10.30;99.90;;;;;;5039020;28;20624;-90
2024/04/04 05:27:16;;;;;;;2.03;0.83;;;10.20;99.90;;;;;;4995533;28;20674;-90
2024/04/04 05:29:44;;;;;;;1.60;1.10;;;10.30;99.90;;;;;;4980580;28;20663;-91
2024/04/04 05:32:12;;;;;;;2.17;0.93;;;10.20;99.90;;;;;;4983220;28;20695;-90
2024/04/04 05:34:40;;;;;;;2.17;1.10;;;10.40;99.90;;;;;;4998548;28;20615;-88
2024/04/04 05:37:07;;;;;;;3.13;1.03;;;10.40;99.90;;;;;;4987998;28;20634;-87
2024/04/04 05:39:32;;;;;;;1.70;1.10;;;10.40;99.90;;;;;;5000841;28;20683;-85
2024/04/04 05:42:01;;;;;;;2.37;1.10;;;10.50;99.90;;;;;;5044026;28;21094;-82
2024/04/04 05:44:26;;;;;;;2.03;1.03;;;10.50;99.90;;;;;;5018956;28;20207;-81
2024/04/04 05:46:54;;;;;;;1.43;0.77;;;10.50;99.90;;;;;;5013403;28;20730;-82
2024/04/04 05:49:20;;;;;;;3.20;1.30;;;10.40;99.90;;;;;;5036250;28;20303;-81
2024/04/04 05:51:47;;;;;;;2.03;1.07;;;10.50;99.90;;;;;;5033801;28;21176;-81
2024/04/04 05:54:13;;;;;;;1.63;1.20;;;10.60;99.90;;;;;;4998535;28;20920;-81
2024/04/04 05:56:40;;;;;;;2.37;1.80;;;10.60;99.90;;;;;;4985960;28;20628;-82
2024/04/04 05:59:07;;;;;;;2.70;1.10;;;10.60;99.90;;;;;;4980899;28;20618;-84
2024/04/04 06:01:34;;;;;;;3.60;1.13;;;10.60;99.90;;;;;;4980807;28;20734;-84
2024/04/04 06:06:53;;;;;;;2.00;0.97;;;10.70;99.90;;;;;;4972803;28;21026;-84
2024/04/04 06:10:12;;;;;;;3.43;1.43;;;10.80;99.90;;;;;;4996381;28;20732;-84
2024/04/04 06:12:38;;;;;;;1.80;1.13;;;11.00;99.90;;;;;;5000504;28;21390;-84
2024/04/04 06:15:13;;;;;;;1.33;1.00;;;11.00;99.90;;;;;;5003056;28;20612;-83
2024/04/04 06:17:39;;;;;;;2.87;1.20;;;11.00;99.90;;;;;;4991875;28;20648;-82
2024/04/04 06:20:08;;;;;;;1.23;1.10;;;11.00;99.90;;;;;;4992033;28;20640;-82
2024/04/04 06:22:33;;;;;;;5.50;1.70;;;11.10;99.90;;;;;;4993726;28;20670;-83
2024/04/04 06:25:00;;;;;;;3.47;1.40;;;11.10;99.90;;;;;;4989994;28;20624;-83
2024/04/04 06:27:26;;;;;;;1.07;0.90;;;11.20;99.90;;;;;;4974872;28;20310;-82
2024/04/04 06:29:53;;;;;;;3.60;1.43;;;11.40;99.90;;;;;;4992557;28;21244;-83
2024/04/04 06:32:20;;;;;;;3.57;1.30;;;11.50;99.90;;;;;;4985833;28;20647;-82
2024/04/04 06:34:47;;;;;;;1.17;0.97;;;11.70;99.90;;;;;;5007846;28;21018;-83
2024/04/04 06:37:16;;;;;;;5.17;3.43;;;11.80;99.90;;;;;;5015622;28;21084;-85
2024/04/04 06:39:43;;;;;;;3.40;1.50;;;11.80;99.90;;;;;;4977487;28;20670;-85
2024/04/04 06:42:09;;;;;;;2.53;1.30;;;11.80;99.90;;;;;;5013828;28;22028;-84
2024/04/04 06:44:36;;;;;;;3.60;1.23;;;11.70;99.90;;;;;;4991430;28;21005;-82
2024/04/04 06:47:02;;;;;;;2.73;1.10;;;11.70;99.90;;;;;;5010370;28;20209;-83
2024/04/04 06:49:30;;;;;;;3.20;1.07;;;11.70;99.90;;;;;;5048400;28;20724;-78
2024/04/04 06:51:55;;;;;;;1.73;1.40;;;11.70;99.90;;;;;;5009742;28;20658;-83
2024/04/04 06:54:22;;;;;;;1.20;0.90;;;11.70;99.90;;;;;;4988724;28;20756;-83
2024/04/04 06:56:48;;;;;;;2.37;1.20;;;11.70;99.90;;;;;;5009146;28;20644;-83
2024/04/04 06:59:15;;;;;;;4.43;1.43;;;11.70;99.90;;;;;;4985817;28;20625;-83
2024/04/04 07:01:41;;;;;;;3.07;1.43;;;11.80;99.90;;;;;;4998265;28;20269;-82
2024/04/04 07:04:08;;;;;;;3.93;1.57;;;11.90;99.90;;;;;;4990009;28;20618;-83
2024/04/04 07:06:35;;;;;;;3.90;1.50;;;12.00;99.90;;;;;;4992862;28;20632;-83
2024/04/04 07:09:02;;;;;;;2.60;1.47;;;12.10;99.90;;;;;;5008910;28;20659;-83
2024/04/04 07:11:28;;;;;;;2.90;1.57;;;12.20;99.90;;;;;;5003730;28;20625;-83
2024/04/04 07:13:55;;;;;;;1.87;1.30;;;12.50;99.90;;;;;;5006011;28;20629;-83
2024/04/04 07:16:20;;;;;;;3.73;1.30;;;12.70;99.90;;;;;;4999082;28;20204;-82
2024/04/04 07:18:47;;;;;;;1.40;1.00;;;12.70;99.90;;;;;;4969627;28;21248;-81
2024/04/04 07:21:13;;;;;;;3.27;1.40;;;12.80;99.90;;;;;;4978509;28;20518;-81
2024/04/04 07:23:41;;;;;;;3.50;1.40;;;12.90;99.90;;;;;;4979046;28;21077;-83
2024/04/04 07:26:07;;;;;;;6.70;1.40;;;13.00;99.90;;;;;;4976369;28;20628;-81
2024/04/04 07:28:34;;;;;;;5.23;1.57;;;13.10;99.90;;;;;;5002429;28;21206;-82
2024/04/04 07:31:00;;;;;;;3.00;1.30;;;13.10;99.90;;;;;;4993383;28;20623;-82
2024/04/04 07:33:27;;;;;;;3.00;0.90;;;13.10;99.90;;;;;;4988773;28;20637;-82
2024/04/04 07:35:52;;;;;;;5.03;1.27;;;13.00;99.70;;;;;;5019702;28;20658;-82
2024/04/04 07:38:19;;;;;;;2.90;1.23;;;12.90;98.90;;;;;;4999105;28;20626;-82
2024/04/04 07:40:46;;;;;;;1.60;0.97;;;13.00;99.50;;;;;;5008202;28;20208;-81
2024/04/04 07:43:13;;;;;;;7.23;1.50;;;13.00;99.20;;;;;;4987807;28;20715;-81
2024/04/04 07:45:40;;;;;;;3.47;1.27;;;12.90;99.30;;;;;;5000804;28;21225;-81
2024/04/04 07:48:09;;;;;;;4.60;1.60;;;12.90;99.90;;;;;;4991275;28;20624;-80
2024/04/04 07:50:35;;;;;;;4.17;1.40;;;12.70;99.90;;;;;;5032622;28;20724;-80
2024/04/04 07:53:03;;;;;;;2.23;2.00;;;12.70;99.90;;;;;;5037198;28;20708;-80
2024/04/04 07:55:29;;;;;;;3.13;1.00;;;12.70;99.90;;;;;;4983819;28;20633;-81
2024/04/04 07:57:57;;;;;;;2.33;1.37;;;12.60;99.90;;;;;;4985169;28;21029;-81
2024/04/04 08:00:24;;;;;;;5.73;1.93;;;12.60;99.90;;;;;;5007928;28;20620;-81
2024/04/04 08:02:51;;;;;;;3.10;1.47;;;12.50;99.90;;;;;;4989364;28;21048;-81
2024/04/04 08:05:18;;;;;;;1.63;1.00;;;12.50;99.90;;;;;;4974890;28;20734;-81
2024/04/04 08:07:44;;;;;;;1.80;1.30;;;12.60;99.90;;;;;;4984633;28;20641;-82
2024/04/04 08:10:13;;;;;;;2.70;1.40;;;12.60;99.90;;;;;;4983049;28;20638;-82
2024/04/04 08:12:40;;;;;;;6.40;1.50;;;12.60;99.90;;;;;;4999616;28;20748;-83
2024/04/04 08:15:10;;;;;;;1.60;1.10;;;12.70;99.90;;;;;;4978732;28;21184;-82
2024/04/04 08:17:40;;;;;;;3.70;1.63;;;12.70;99.90;;;;;;5036670;28;21779;-81
2024/04/04 08:20:08;;;;;;;3.43;1.37;;;12.70;99.90;;;;;;4976666;28;20639;-82
2024/04/04 08:22:35;;;;;;;3.70;1.40;;;12.70;99.90;;;;;;4974029;28;20673;-82
2024/04/04 08:25:01;;;;;;;4.73;1.67;;;12.70;99.90;;;;;;4984632;28;20628;-82
2024/04/04 08:27:28;;;;;;;2.73;1.20;;;12.70;99.90;;;;;;4999311;28;21015;-82
2024/04/04 08:29:53;;;;;;;4.67;1.93;;;12.60;99.90;;;;;;4985789;28;20199;-81
2024/04/04 08:32:21;;;;;;;4.00;3.60;;;12.60;99.90;;;;;;5005261;28;20631;-81
2024/04/04 08:34:48;;;;;;;4.57;1.27;;;12.60;99.90;;;;;;5019391;28;20203;-82
2024/04/04 08:37:15;;;;;;;5.63;1.80;;;12.60;99.90;;;;;;4978637;28;20627;-82
2024/04/04 08:39:40;;;;;;;5.63;1.67;;;12.60;99.90;;;;;;5013002;28;20778;-82
2024/04/04 08:42:09;;;;;;;6.50;1.60;;;12.60;99.90;;;;;;5017757;28;20736;-82
2024/04/04 08:44:35;;;;;;;1.93;1.33;;;12.50;99.90;;;;;;4984267;28;20205;-81
2024/04/04 08:47:02;;;;;;;2.93;1.40;;;12.70;99.90;;;;;;4982084;28;20979;-82
2024/04/04 08:49:32;;;;;;;5.73;1.43;;;12.70;99.90;;;;;;4992523;28;20665;-82
2024/04/04 08:51:59;;;;;;;2.17;1.43;;;12.80;99.90;;;;;;4988364;28;21102;-82
2024/04/04 08:54:26;;;;;;;3.40;1.30;;;12.90;99.90;;;;;;5015635;28;20769;-83
2024/04/04 08:56:54;;;;;;;2.03;1.13;;;13.00;99.90;;;;;;5010908;28;21200;-82
2024/04/04 08:59:21;;;;;;;2.10;1.57;;;12.90;99.90;;;;;;4990438;28;20631;-82
2024/04/04 09:01:48;;;;;;;6.50;1.83;;;13.00;99.90;;;;;;4996292;28;20984;-82
2024/04/04 09:04:22;;;;;;;3.50;1.30;;;13.10;99.90;;;;;;4998507;28;20649;-81
2024/04/04 09:06:51;;;;;;;2.17;1.20;;;13.30;99.90;;;;;;4969292;28;20971;-82
2024/04/04 09:09:17;;;;;;;3.20;1.23;;;13.30;99.90;;;;;;5006330;28;20663;-82
2024/04/04 09:11:44;;;;;;;2.83;1.43;;;13.50;99.90;;;;;;4973968;28;20628;-82
2024/04/04 09:14:09;;;;;;;1.87;1.33;;;13.50;99.90;;;;;;5011652;28;20756;-82
2024/04/04 09:16:36;;;;;;;4.00;1.30;;;13.40;99.90;;;;;;5029376;28;20727;-82
2024/04/04 09:19:13;;;;;;;1.67;1.30;;;13.40;99.90;;;;;;4993644;28;20637;-82
2024/04/04 09:21:40;;;;;;;2.93;1.37;;;13.40;99.90;;;;;;5053076;28;20627;-82
2024/04/04 09:24:08;;;;;;;1.67;1.03;;;13.40;99.90;;;;;;5017822;28;20673;-82
2024/04/04 09:26:36;;;;;;;2.60;1.43;;;13.60;99.90;;;;;;4982439;28;20631;-79
2024/04/04 09:29:03;;;;;;;4.83;1.60;;;13.70;99.90;;;;;;4981484;28;21251;-83
2024/04/04 09:31:33;;;;;;;1.70;1.57;;;13.90;99.90;;;;;;4999293;28;20629;-83
2024/04/04 09:34:00;;;;;;;4.20;1.37;;;14.00;99.90;;;;;;4986345;28;20633;-82
2024/04/04 09:36:29;;;;;;;4.40;1.30;;;14.10;99.60;;;;;;5005533;28;20629;-81
2024/04/04 09:38:56;;;;;;;1.73;0.90;;;14.10;99.70;;;;;;4996719;28;20635;-81
2024/04/04 09:41:25;;;;;;;3.43;1.13;;;14.00;99.70;;;;;;4965685;28;20627;-83
2024/04/04 09:43:55;;;;;;;2.57;0.97;;;13.90;99.90;;;;;;4975498;28;20709;-84
2024/04/04 09:46:22;;;;;;;3.43;1.47;;;14.10;99.80;;;;;;4973645;28;21036;-83
2024/04/04 09:48:49;;;;;;;3.37;1.67;;;14.10;99.90;;;;;;4995555;28;20653;-85
2024/04/04 09:51:17;;;;;;;1.83;1.10;;;14.10;99.90;;;;;;5010548;28;20616;-80
2024/04/04 09:53:44;;;;;;;2.20;1.03;;;14.10;99.90;;;;;;5033950;28;20708;-82
2024/04/04 09:56:12;;;;;;;7.43;1.67;;;14.00;98.90;;;;;;4999337;28;21198;-82
2024/04/04 09:58:42;;;;;;;3.80;2.30;;;14.00;99.20;;;;;;5023618;28;20653;-79
2024/04/04 10:01:20;;;;;;;4.63;1.33;;;13.90;99.90;;;;;;4975004;28;21359;-79
2024/04/04 10:03:57;;;;;;;1.77;1.07;;;13.80;99.90;;;;;;4979430;28;21075;-85
2024/04/04 10:06:35;;;;;;;2.47;1.03;;;13.80;99.90;;;;;;5015181;28;20636;-81
2024/04/04 10:09:12;;;;;;;4.43;1.43;;;13.80;99.90;;;;;;5014987;28;20641;-81
2024/04/04 10:11:39;;;;;;;2.97;1.33;;;13.80;99.90;;;;;;5031235;28;20619;-78
2024/04/04 10:14:12;;;;;;;2.73;1.17;;;13.70;99.90;;;;;;5018775;28;20687;-78
2024/04/04 10:16:39;;;;;;;1.33;1.00;;;13.60;99.90;;;;;;5025404;28;20660;-73
2024/04/04 10:19:12;;;;;;;1.13;1.00;;;13.50;99.90;;;;;;4984064;28;20640;-81
2024/04/04 10:21:39;;;;;;;2.13;1.80;;;13.40;99.90;;;;;;4989092;28;20620;-78
2024/04/04 10:24:05;;;;;;;2.40;1.30;;;13.50;99.90;;;;;;4989142;28;20687;-74
2024/04/04 10:26:32;;;;;;;4.10;1.73;;;13.40;99.90;;;;;;5002400;28;21129;-75
2024/04/04 10:28:58;;;;;;;3.00;2.10;;;13.40;99.90;;;;;;5012315;28;20813;-73
2024/04/04 10:31:26;;;;;;;1.47;1.10;;;13.40;99.90;;;;;;4977130;28;20699;-73
2024/04/04 10:34:03;;;;;;;1.97;1.53;;;13.40;99.90;;;;;;4993022;28;20212;-73
2024/04/04 10:36:43;;;;;;;5.20;1.83;;;13.30;99.90;;;;;;4995949;28;20642;-73
2024/04/04 10:39:14;;;;;;;3.10;1.50;;;13.40;99.90;;;;;;4968170;28;20647;-74
2024/04/04 10:41:42;;;;;;;1.60;1.30;;;13.40;99.90;;;;;;4979246;28;20694;-74
2024/04/04 10:44:13;;;;;;;3.63;1.60;;;13.30;99.90;;;;;;4989166;28;20676;-74
2024/04/04 10:46:43;;;;;;;1.60;1.30;;;13.40;99.90;;;;;;4989771;28;20620;-77
2024/04/04 10:49:10;;;;;;;2.57;2.03;;;13.50;99.90;;;;;;5020713;28;21068;-74
2024/04/04 10:51:39;;;;;;;2.80;2.10;;;13.70;99.90;;;;;;4980474;28;20665;-88
2024/04/04 10:54:05;;;;;;;3.23;2.37;;;13.60;99.90;;;;;;4980820;28;20679;-83
2024/04/04 10:56:33;;;;;;;3.93;2.03;;;13.70;99.90;;;;;;4992366;28;21015;-88
2024/04/04 10:58:59;;;;;;;1.77;1.10;;;13.70;99.90;;;;;;4975138;28;20695;-84
2024/04/04 11:01:27;;;;;;;3.20;1.23;;;13.70;99.90;;;;;;5021903;28;21237;-83
2024/04/04 11:03:55;;;;;;;1.47;1.37;;;13.70;99.90;;;;;;5006078;28;21038;-83
2024/04/04 11:06:22;;;;;;;2.47;1.53;;;13.70;99.90;;;;;;5016677;28;20625;-83
2024/04/04 11:08:49;;;;;;;5.10;2.23;;;13.80;99.90;;;;;;5008351;28;20676;-85
2024/04/04 11:11:17;;;;;;;1.67;1.37;;;14.10;99.90;;;;;;5042780;28;20628;-83
2024/04/04 11:13:43;;;;;;;2.10;1.00;;;14.20;99.90;;;;;;5058074;28;20757;-83
2024/04/04 11:16:11;;;;;;;1.20;1.10;;;14.20;99.90;;;;;;5058827;28;21224;-83
2024/04/04 11:18:38;;;;;;;1.47;1.20;;;14.20;99.90;;;;;;4987029;28;20662;-83
2024/04/04 11:21:09;;;;;;;4.03;1.50;;;14.10;99.90;;;;;;4979552;28;21680;-79
2024/04/04 11:23:35;;;;;;;2.47;1.60;;;14.10;99.90;;;;;;4994909;28;20669;-79
2024/04/04 11:26:02;;;;;;;3.23;1.30;;;14.10;99.90;;;;;;4969935;28;21263;-78
2024/04/04 11:28:28;;;;;;;1.57;1.30;;;14.20;99.90;;;;;;4970991;28;20740;-77
2024/04/04 11:30:55;;;;;;;2.47;1.23;;;14.10;99.90;;;;;;4968841;28;21481;-76
2024/04/04 11:33:21;;;;;;;4.33;1.13;;;14.20;99.90;;;;;;4987730;28;20213;-80
2024/04/04 11:35:47;;;;;;;3.83;1.57;;;14.10;99.90;;;;;;5023214;28;20633;-80
2024/04/04 11:38:15;;;;;;;1.97;1.30;;;14.20;99.90;;;;;;4976930;28;20207;-80
2024/04/04 11:40:41;;;;;;;2.37;1.40;;;14.10;99.90;;;;;;5029041;28;20610;-80
2024/04/04 11:43:07;;;;;;;3.03;1.30;;;14.10;99.90;;;;;;5062397;28;21253;-80
2024/04/04 11:45:35;;;;;;;3.10;1.67;;;13.90;99.90;;;;;;5014674;28;20617;-81
2024/04/04 11:48:02;;;;;;;2.80;1.27;;;13.90;99.90;;;;;;4998685;28;21198;-80
2024/04/04 11:50:31;;;;;;;2.00;1.17;;;13.80;99.90;;;;;;5002780;28;20641;-81
2024/04/04 11:52:59;;;;;;;3.47;1.33;;;13.80;99.90;;;;;;5054579;28;20633;-81
2024/04/04 11:55:28;;;;;;;3.33;1.30;;;13.80;99.90;;;;;;5038483;28;20632;-80
2024/04/04 11:57:54;;;;;;;1.87;1.53;;;13.80;99.90;;;;;;5067653;28;20898;-81
2024/04/04 12:00:21;;;;;;;3.20;1.53;;;13.80;99.90;;;;;;5001194;28;21157;-80
2024/04/04 12:02:47;;;;;;;4.20;1.97;;;13.90;99.90;;;;;;5017595;28;20673;-80
2024/04/04 12:05:14;;;;;;;3.10;1.30;;;13.70;99.90;;;;;;5009676;28;20665;-81
2024/04/04 12:07:41;;;;;;;2.33;1.10;;;13.70;99.90;;;;;;5042144;28;20622;-80
2024/04/04 12:10:09;;;;;;;2.80;1.43;;;13.90;99.90;;;;;;5027083;28;21308;-80
2024/04/04 12:12:36;;;;;;;4.00;1.63;;;14.30;99.90;;;;;;5044501;28;21429;-80
2024/04/04 12:15:07;;;;;;;3.13;1.57;;;14.50;99.90;;;;;;5031780;28;20640;-80
2024/04/04 12:17:33;;;;;;;3.90;1.40;;;14.70;99.90;;;;;;5006316;28;21043;-80
2024/04/04 12:19:59;;;;;;;0.77;0.77;;;14.60;99.90;;;;;;5032071;28;20985;-81
2024/04/04 12:22:25;;;;;;;1.27;0.93;;;14.70;99.90;;;;;;5006673;28;20633;-80
2024/04/04 12:24:52;;;;;;;2.80;1.50;;;14.50;99.20;;;;;;5029731;28;20242;-80
2024/04/04 12:27:20;;;;;;;2.97;0.90;;;14.50;98.80;;;;;;5022758;28;20657;-80
2024/04/04 12:29:47;;;;;;;2.97;1.30;;;14.40;98.60;;;;;;5037294;28;20694;-80
2024/04/04 12:32:13;;;;;;;1.70;1.30;;;14.40;99.90;;;;;;5034786;28;20624;-80
2024/04/04 12:34:39;;;;;;;2.30;1.40;;;14.30;99.90;;;;;;5053109;28;21248;-81
2024/04/04 12:37:07;;;;;;;3.40;1.23;;;14.30;99.50;;;;;;5051995;28;20625;-80
2024/04/04 12:39:32;;;;;;;2.93;1.40;;;14.40;99.90;;;;;;4982310;28;20299;-81
2024/04/04 12:41:59;;;;;;;1.67;1.33;;;14.50;99.90;;;;;;5023012;28;20721;-81
2024/04/04 12:44:26;;;;;;;3.03;1.07;;;14.30;98.10;;;;;;4994221;28;20222;-81
2024/04/04 12:46:54;;;;;;;0.97;0.80;;;14.40;99.70;;;;;;5044743;28;20696;-81
2024/04/04 12:49:19;;;;;;;1.67;0.97;;;14.60;99.50;;;;;;4990172;28;20631;-81
2024/04/04 12:51:46;;;;;;;7.03;1.10;;;14.50;98.80;;;;;;5027510;28;20729;-81
2024/04/04 12:54:12;;;;;;;1.53;0.90;;;14.60;99.40;;;;;;5002633;28;20245;-82